sensor_id;sensor_type;location;lat;lon;timestamp;P1;P2;P0
44871;PMS7003;30602;51.060;17.226;2022-07-29T00:02:03;8;7;6
44871;PMS7003;30602;51.060;17.226;2022-07-29T00:05:55;11;10;8
44871;PMS7003;30602;51.060;17.226;2022-07-29T00:12:57;10;9;8
44871;PMS7003;30602;51.060;17.226;2022-07-29T00:16:28;8;8;7
44871;PMS7003;30602;51.060;17.226;2022-07-29T00:19:59;9;8;7
44871;PMS7003;30602;51.060;17.226;2022-07-29T00:23:40;12;10;8
44871;PMS7003;30602;51.060;17.226;2022-07-29T00:27:53;11;9;8
44871;PMS7003;30602;51.060;17.226;2022-07-29T00:31:03;10;10;8
44871;PMS7003;30602;51.060;17.226;2022-07-29T00:34:41;11;10;7
44871;PMS7003;30602;51.060;17.226;2022-07-29T00:38:01;15;9;8
44871;PMS7003;30602;51.060;17.226;2022-07-29T00:41:40;9;9;8
44871;PMS7003;30602;51.060;17.226;2022-07-29T00:45:51;10;9;7
44871;PMS7003;30602;51.060;17.226;2022-07-29T00:49:32;10;9;7
44871;PMS7003;30602;51.060;17.226;2022-07-29T00:53:11;7;5;4
44871;PMS7003;30602;51.060;17.226;2022-07-29T00:57:10;10;9;7
44871;PMS7003;30602;51.060;17.226;2022-07-29T01:00:38;12;11;9
44871;PMS7003;30602;51.060;17.226;2022-07-29T01:04:15;11;10;8
44871;PMS7003;30602;51.060;17.226;2022-07-29T01:07:55;13;10;8
44871;PMS7003;30602;51.060;17.226;2022-07-29T01:11:30;10;10;8
44871;PMS7003;30602;51.060;17.226;2022-07-29T01:14:52;10;10;9
44871;PMS7003;30602;51.060;17.226;2022-07-29T01:18:34;11;8;7
44871;PMS7003;30602;51.060;17.226;2022-07-29T01:22:05;11;9;8
44871;PMS7003;30602;51.060;17.226;2022-07-29T01:29:48;10;10;8
44871;PMS7003;30602;51.060;17.226;2022-07-29T01:33:08;12;10;8
44871;PMS7003;30602;51.060;17.226;2022-07-29T01:36:33;11;11;8
44871;PMS7003;30602;51.060;17.226;2022-07-29T01:40:03;12;10;8
44871;PMS7003;30602;51.060;17.226;2022-07-29T01:51:43;10;9;8
44871;PMS7003;30602;51.060;17.226;2022-07-29T01:55:04;14;9;8
44871;PMS7003;30602;51.060;17.226;2022-07-29T01:59:11;10;9;7
44871;PMS7003;30602;51.060;17.226;2022-07-29T02:03:15;10;9;7
44871;PMS7003;30602;51.060;17.226;2022-07-29T02:06:26;9;9;8
44871;PMS7003;30602;51.060;17.226;2022-07-29T02:09:39;9;8;7
44871;PMS7003;30602;51.060;17.226;2022-07-29T02:13:21;10;7;6
44871;PMS7003;30602;51.060;17.226;2022-07-29T02:16:34;10;9;8
44871;PMS7003;30602;51.060;17.226;2022-07-29T02:20:38;10;8;7
44871;PMS7003;30602;51.060;17.226;2022-07-29T02:24:01;11;9;7
44871;PMS7003;30602;51.060;17.226;2022-07-29T02:28:25;10;10;8
44871;PMS7003;30602;51.060;17.226;2022-07-29T02:32:18;10;10;8
44871;PMS7003;30602;51.060;17.226;2022-07-29T02:35:42;11;10;9
44871;PMS7003;30602;51.060;17.226;2022-07-29T02:39:14;8;8;7
44871;PMS7003;30602;51.060;17.226;2022-07-29T02:42:35;11;10;7
44871;PMS7003;30602;51.060;17.226;2022-07-29T02:46:19;12;11;9
44871;PMS7003;30602;51.060;17.226;2022-07-29T02:53:35;8;8;6
44871;PMS7003;30602;51.060;17.226;2022-07-29T02:56:48;12;8;7
44871;PMS7003;30602;51.060;17.226;2022-07-29T03:00:14;8;8;7
44871;PMS7003;30602;51.060;17.226;2022-07-29T03:11:10;10;8;8
44871;PMS7003;30602;51.060;17.226;2022-07-29T03:15:11;9;9;7
44871;PMS7003;30602;51.060;17.226;2022-07-29T03:18:45;13;9;7
44871;PMS7003;30602;51.060;17.226;2022-07-29T03:21:55;12;8;7
44871;PMS7003;30602;51.060;17.226;2022-07-29T03:25:37;9;8;6
44871;PMS7003;30602;51.060;17.226;2022-07-29T03:28:59;9;8;6
44871;PMS7003;30602;51.060;17.226;2022-07-29T03:33:00;15;9;8
44871;PMS7003;30602;51.060;17.226;2022-07-29T03:36:28;10;10;8
44871;PMS7003;30602;51.060;17.226;2022-07-29T03:39:48;10;8;7
44871;PMS7003;30602;51.060;17.226;2022-07-29T03:42:57;10;9;7
44871;PMS7003;30602;51.060;17.226;2022-07-29T03:47:02;7;7;7
44871;PMS7003;30602;51.060;17.226;2022-07-29T03:50:14;9;8;6
44871;PMS7003;30602;51.060;17.226;2022-07-29T03:54:05;10;8;7
44871;PMS7003;30602;51.060;17.226;2022-07-29T03:57:13;13;11;8
44871;PMS7003;30602;51.060;17.226;2022-07-29T04:00:25;10;8;7
44871;PMS7003;30602;51.060;17.226;2022-07-29T04:04:16;8;8;7
44871;PMS7003;30602;51.060;17.226;2022-07-29T04:07:27;10;9;8
44871;PMS7003;30602;51.060;17.226;2022-07-29T04:10:39;9;8;7
44871;PMS7003;30602;51.060;17.226;2022-07-29T04:14:22;9;9;8
44871;PMS7003;30602;51.060;17.226;2022-07-29T04:18:01;8;8;7
44871;PMS7003;30602;51.060;17.226;2022-07-29T04:21:27;8;8;8
44871;PMS7003;30602;51.060;17.226;2022-07-29T04:24:36;10;9;8
44871;PMS7003;30602;51.060;17.226;2022-07-29T04:28:15;10;9;8
44871;PMS7003;30602;51.060;17.226;2022-07-29T04:31:42;9;7;6
44871;PMS7003;30602;51.060;17.226;2022-07-29T04:35:23;7;7;7
44871;PMS7003;30602;51.060;17.226;2022-07-29T04:38:34;9;7;6
44871;PMS7003;30602;51.060;17.226;2022-07-29T04:42:01;8;7;5
44871;PMS7003;30602;51.060;17.226;2022-07-29T04:45:24;10;7;6
44871;PMS7003;30602;51.060;17.226;2022-07-29T04:48:44;6;6;5
44871;PMS7003;30602;51.060;17.226;2022-07-29T04:52:05;5;5;5
44871;PMS7003;30602;51.060;17.226;2022-07-29T04:55:36;7;6;6
44871;PMS7003;30602;51.060;17.226;2022-07-29T04:59:28;10;7;6
44871;PMS7003;30602;51.060;17.226;2022-07-29T05:02:35;7;7;6
44871;PMS7003;30602;51.060;17.226;2022-07-29T05:06:08;7;7;6
44871;PMS7003;30602;51.060;17.226;2022-07-29T05:09:40;7;6;6
44871;PMS7003;30602;51.060;17.226;2022-07-29T05:12:49;7;6;5
44871;PMS7003;30602;51.060;17.226;2022-07-29T05:15:57;7;4;4
44871;PMS7003;30602;51.060;17.226;2022-07-29T05:19:06;4;3;2
44871;PMS7003;30602;51.060;17.226;2022-07-29T05:22:37;4;3;3
44871;PMS7003;30602;51.060;17.226;2022-07-29T05:26:18;4;3;3
44871;PMS7003;30602;51.060;17.226;2022-07-29T05:30:01;5;4;3
44871;PMS7003;30602;51.060;17.226;2022-07-29T05:33:41;5;5;4
44871;PMS7003;30602;51.060;17.226;2022-07-29T05:36:51;4;3;3
44871;PMS7003;30602;51.060;17.226;2022-07-29T05:40:00;4;4;4
44871;PMS7003;30602;51.060;17.226;2022-07-29T05:43:19;5;5;4
44871;PMS7003;30602;51.060;17.226;2022-07-29T05:47:09;6;4;3
44871;PMS7003;30602;51.060;17.226;2022-07-29T05:50:40;4;3;3
44871;PMS7003;30602;51.060;17.226;2022-07-29T05:54:00;3;3;2
44871;PMS7003;30602;51.060;17.226;2022-07-29T05:57:16;2;2;2
44871;PMS7003;30602;51.060;17.226;2022-07-29T06:00:24;3;3;3
44871;PMS7003;30602;51.060;17.226;2022-07-29T06:03:34;3;2;2
44871;PMS7003;30602;51.060;17.226;2022-07-29T06:07:05;4;3;2
44871;PMS7003;30602;51.060;17.226;2022-07-29T06:10:44;5;4;3
44871;PMS7003;30602;51.060;17.226;2022-07-29T06:18:09;4;3;2
44871;PMS7003;30602;51.060;17.226;2022-07-29T06:21:36;4;3;3
44871;PMS7003;30602;51.060;17.226;2022-07-29T06:24:48;2;2;2
44871;PMS7003;30602;51.060;17.226;2022-07-29T06:28:15;3;2;2
44871;PMS7003;30602;51.060;17.226;2022-07-29T06:31:56;2;2;1
44871;PMS7003;30602;51.060;17.226;2022-07-29T06:35:28;3;3;3
44871;PMS7003;30602;51.060;17.226;2022-07-29T06:38:55;2;2;2
44871;PMS7003;30602;51.060;17.226;2022-07-29T06:42:36;3;3;2
44871;PMS7003;30602;51.060;17.226;2022-07-29T06:46:07;4;3;3
44871;PMS7003;30602;51.060;17.226;2022-07-29T06:49:35;3;2;2
44871;PMS7003;30602;51.060;17.226;2022-07-29T06:53:15;2;2;2
44871;PMS7003;30602;51.060;17.226;2022-07-29T06:56:24;4;3;2
44871;PMS7003;30602;51.060;17.226;2022-07-29T06:59:32;3;2;2
44871;PMS7003;30602;51.060;17.226;2022-07-29T07:02:59;2;2;1
44871;PMS7003;30602;51.060;17.226;2022-07-29T07:06:29;5;2;2
44871;PMS7003;30602;51.060;17.226;2022-07-29T07:10:18;2;2;2
44871;PMS7003;30602;51.060;17.226;2022-07-29T07:13:47;3;3;2
44871;PMS7003;30602;51.060;17.226;2022-07-29T07:17:27;3;3;2
44871;PMS7003;30602;51.060;17.226;2022-07-29T07:20:35;4;4;3
44871;PMS7003;30602;51.060;17.226;2022-07-29T07:24:14;3;3;3
44871;PMS7003;30602;51.060;17.226;2022-07-29T07:27:56;4;4;3
44871;PMS7003;30602;51.060;17.226;2022-07-29T07:31:33;3;2;2
44871;PMS7003;30602;51.060;17.226;2022-07-29T07:35:08;4;4;3
44871;PMS7003;30602;51.060;17.226;2022-07-29T07:38:19;3;3;2
44871;PMS7003;30602;51.060;17.226;2022-07-29T07:41:40;4;4;3
44871;PMS7003;30602;51.060;17.226;2022-07-29T07:45:12;2;2;2
44871;PMS7003;30602;51.060;17.226;2022-07-29T07:49:01;2;2;2
44871;PMS7003;30602;51.060;17.226;2022-07-29T07:52:10;3;2;2
44871;PMS7003;30602;51.060;17.226;2022-07-29T07:55:48;3;3;3
44871;PMS7003;30602;51.060;17.226;2022-07-29T07:59:17;3;3;3
44871;PMS7003;30602;51.060;17.226;2022-07-29T08:02:26;3;3;3
44871;PMS7003;30602;51.060;17.226;2022-07-29T08:05:34;4;4;3
44871;PMS7003;30602;51.060;17.226;2022-07-29T08:12:36;4;3;2
44871;PMS7003;30602;51.060;17.226;2022-07-29T08:16:18;4;4;4
44871;PMS7003;30602;51.060;17.226;2022-07-29T08:19:24;4;3;3
44871;PMS7003;30602;51.060;17.226;2022-07-29T08:22:54;3;3;3
44871;PMS7003;30602;51.060;17.226;2022-07-29T08:26:31;3;3;2
44871;PMS7003;30602;51.060;17.226;2022-07-29T08:29:57;3;3;2
44871;PMS7003;30602;51.060;17.226;2022-07-29T08:33:06;6;4;4
44871;PMS7003;30602;51.060;17.226;2022-07-29T08:36:38;5;4;3
44871;PMS7003;30602;51.060;17.226;2022-07-29T08:40:07;4;3;3
44871;PMS7003;30602;51.060;17.226;2022-07-29T08:43:18;3;3;2
44871;PMS7003;30602;51.060;17.226;2022-07-29T08:47:14;4;3;3
44871;PMS7003;30602;51.060;17.226;2022-07-29T08:50:27;4;3;3
44871;PMS7003;30602;51.060;17.226;2022-07-29T08:53:57;3;3;3
44871;PMS7003;30602;51.060;17.226;2022-07-29T08:57:50;3;3;3
44871;PMS7003;30602;51.060;17.226;2022-07-29T09:01:29;4;4;4
44871;PMS7003;30602;51.060;17.226;2022-07-29T09:05:24;5;4;4
44871;PMS7003;30602;51.060;17.226;2022-07-29T09:08:32;5;5;4
44871;PMS7003;30602;51.060;17.226;2022-07-29T09:12:00;6;4;4
44871;PMS7003;30602;51.060;17.226;2022-07-29T09:15:30;4;4;3
44871;PMS7003;30602;51.060;17.226;2022-07-29T09:19:44;4;4;4
44871;PMS7003;30602;51.060;17.226;2022-07-29T09:23:23;6;6;5
44871;PMS7003;30602;51.060;17.226;2022-07-29T09:26:31;3;3;3
44871;PMS7003;30602;51.060;17.226;2022-07-29T09:33:03;5;5;5
44871;PMS7003;30602;51.060;17.226;2022-07-29T09:36:46;4;4;3
44871;PMS7003;30602;51.060;17.226;2022-07-29T09:39:56;8;5;5
44871;PMS7003;30602;51.060;17.226;2022-07-29T09:43:29;6;5;5
44871;PMS7003;30602;51.060;17.226;2022-07-29T09:47:21;6;6;5
44871;PMS7003;30602;51.060;17.226;2022-07-29T09:50:36;5;5;4
44871;PMS7003;30602;51.060;17.226;2022-07-29T09:53:51;5;5;4
44871;PMS7003;30602;51.060;17.226;2022-07-29T09:57:05;5;5;5
44871;PMS7003;30602;51.060;17.226;2022-07-29T10:00:19;5;5;4
44871;PMS7003;30602;51.060;17.226;2022-07-29T10:11:31;4;4;3
44871;PMS7003;30602;51.060;17.226;2022-07-29T10:14:59;6;6;5
44871;PMS7003;30602;51.060;17.226;2022-07-29T10:18:42;5;5;4
44871;PMS7003;30602;51.060;17.226;2022-07-29T10:22:23;6;5;4
44871;PMS7003;30602;51.060;17.226;2022-07-29T10:25:45;5;5;4
44871;PMS7003;30602;51.060;17.226;2022-07-29T10:29:34;5;5;4
44871;PMS7003;30602;51.060;17.226;2022-07-29T10:33:06;6;6;5
44871;PMS7003;30602;51.060;17.226;2022-07-29T10:44:20;6;6;6
44871;PMS7003;30602;51.060;17.226;2022-07-29T10:47:29;4;4;4
44871;PMS7003;30602;51.060;17.226;2022-07-29T10:50:53;8;5;4
44871;PMS7003;30602;51.060;17.226;2022-07-29T11:01:27;4;4;4
44871;PMS7003;30602;51.060;17.226;2022-07-29T11:05:04;5;4;4
44871;PMS7003;30602;51.060;17.226;2022-07-29T11:08:18;5;5;4
44871;PMS7003;30602;51.060;17.226;2022-07-29T11:11:54;6;6;5
44871;PMS7003;30602;51.060;17.226;2022-07-29T11:15:28;4;4;4
44871;PMS7003;30602;51.060;17.226;2022-07-29T11:23:35;7;6;5
44871;PMS7003;30602;51.060;17.226;2022-07-29T11:27:09;5;5;4
44871;PMS7003;30602;51.060;17.226;2022-07-29T11:31:42;4;4;3
44871;PMS7003;30602;51.060;17.226;2022-07-29T11:35:40;6;5;5
44871;PMS7003;30602;51.060;17.226;2022-07-29T11:42:41;5;5;4
44871;PMS7003;30602;51.060;17.226;2022-07-29T11:46:11;6;5;4
44871;PMS7003;30602;51.060;17.226;2022-07-29T11:50:10;7;6;5
44871;PMS7003;30602;51.060;17.226;2022-07-29T11:54:10;5;5;5
44871;PMS7003;30602;51.060;17.226;2022-07-29T11:57:59;5;5;4
44871;PMS7003;30602;51.060;17.226;2022-07-29T12:01:26;5;5;5
44871;PMS7003;30602;51.060;17.226;2022-07-29T12:08:29;6;6;5
44871;PMS7003;30602;51.060;17.226;2022-07-29T12:11:59;7;7;6
44871;PMS7003;30602;51.060;17.226;2022-07-29T12:15:39;8;8;8
44871;PMS7003;30602;51.060;17.226;2022-07-29T12:24:03;9;7;6
44871;PMS7003;30602;51.060;17.226;2022-07-29T12:27:42;7;7;6
44871;PMS7003;30602;51.060;17.226;2022-07-29T12:31:05;7;7;6
44871;PMS7003;30602;51.060;17.226;2022-07-29T12:35:02;9;7;6
44871;PMS7003;30602;51.060;17.226;2022-07-29T12:38:34;9;6;6
44871;PMS7003;30602;51.060;17.226;2022-07-29T12:42:15;7;7;6
44871;PMS7003;30602;51.060;17.226;2022-07-29T12:45:29;6;6;5
44871;PMS7003;30602;51.060;17.226;2022-07-29T12:48:37;8;8;6
44871;PMS7003;30602;51.060;17.226;2022-07-29T12:52:40;6;6;5
44871;PMS7003;30602;51.060;17.226;2022-07-29T12:56:15;6;6;6
44871;PMS7003;30602;51.060;17.226;2022-07-29T13:00:13;7;6;5
44871;PMS7003;30602;51.060;17.226;2022-07-29T13:03:47;9;7;6
44871;PMS7003;30602;51.060;17.226;2022-07-29T13:07:28;7;7;7
44871;PMS7003;30602;51.060;17.226;2022-07-29T13:10:42;6;6;5
44871;PMS7003;30602;51.060;17.226;2022-07-29T13:17:50;6;6;5
44871;PMS7003;30602;51.060;17.226;2022-07-29T13:21:30;7;6;6
44871;PMS7003;30602;51.060;17.226;2022-07-29T13:25:30;7;7;7
44871;PMS7003;30602;51.060;17.226;2022-07-29T13:28:57;7;7;6
44871;PMS7003;30602;51.060;17.226;2022-07-29T13:32:35;8;8;6
44871;PMS7003;30602;51.060;17.226;2022-07-29T13:36:00;7;6;5
44871;PMS7003;30602;51.060;17.226;2022-07-29T13:39:20;8;6;5
44871;PMS7003;30602;51.060;17.226;2022-07-29T13:42:29;6;6;6
44871;PMS7003;30602;51.060;17.226;2022-07-29T13:46:10;7;6;5
44871;PMS7003;30602;51.060;17.226;2022-07-29T13:49:20;7;6;6
44871;PMS7003;30602;51.060;17.226;2022-07-29T13:53:23;7;7;6
44871;PMS7003;30602;51.060;17.226;2022-07-29T13:57:17;7;7;7
44871;PMS7003;30602;51.060;17.226;2022-07-29T14:00:45;7;7;6
44871;PMS7003;30602;51.060;17.226;2022-07-29T14:04:16;9;7;6
44871;PMS7003;30602;51.060;17.226;2022-07-29T14:07:45;5;5;5
44871;PMS7003;30602;51.060;17.226;2022-07-29T14:11:28;7;7;6
44871;PMS7003;30602;51.060;17.226;2022-07-29T14:19:20;7;6;6
44871;PMS7003;30602;51.060;17.226;2022-07-29T14:23:12;7;6;6
44871;PMS7003;30602;51.060;17.226;2022-07-29T14:26:31;7;7;7
44871;PMS7003;30602;51.060;17.226;2022-07-29T14:29:38;7;7;7
44871;PMS7003;30602;51.060;17.226;2022-07-29T14:33:10;8;8;7
44871;PMS7003;30602;51.060;17.226;2022-07-29T14:36:58;10;8;8
44871;PMS7003;30602;51.060;17.226;2022-07-29T14:40:09;9;7;7
44871;PMS7003;30602;51.060;17.226;2022-07-29T14:43:52;8;7;7
44871;PMS7003;30602;51.060;17.226;2022-07-29T14:47:13;7;7;6
44871;PMS7003;30602;51.060;17.226;2022-07-29T14:50:40;7;7;7
44871;PMS7003;30602;51.060;17.226;2022-07-29T14:53:55;7;6;5
44871;PMS7003;30602;51.060;17.226;2022-07-29T14:57:02;5;5;5
44871;PMS7003;30602;51.060;17.226;2022-07-29T15:00:10;9;7;7
44871;PMS7003;30602;51.060;17.226;2022-07-29T15:03:53;9;8;7
44871;PMS7003;30602;51.060;17.226;2022-07-29T15:07:24;6;6;6
44871;PMS7003;30602;51.060;17.226;2022-07-29T15:11:40;7;7;6
44871;PMS7003;30602;51.060;17.226;2022-07-29T15:15:36;7;7;6
44871;PMS7003;30602;51.060;17.226;2022-07-29T15:19:13;8;8;8
44871;PMS7003;30602;51.060;17.226;2022-07-29T15:22:20;7;7;7
44871;PMS7003;30602;51.060;17.226;2022-07-29T15:26:33;7;7;6
44871;PMS7003;30602;51.060;17.226;2022-07-29T15:30:03;8;7;7
44871;PMS7003;30602;51.060;17.226;2022-07-29T15:33:30;8;8;7
44871;PMS7003;30602;51.060;17.226;2022-07-29T15:36:38;8;8;7
44871;PMS7003;30602;51.060;17.226;2022-07-29T15:40:09;8;7;6
44871;PMS7003;30602;51.060;17.226;2022-07-29T15:43:19;7;7;6
44871;PMS7003;30602;51.060;17.226;2022-07-29T15:47:08;5;5;5
44871;PMS7003;30602;51.060;17.226;2022-07-29T15:50:46;7;7;6
44871;PMS7003;30602;51.060;17.226;2022-07-29T15:54:39;9;7;7
44871;PMS7003;30602;51.060;17.226;2022-07-29T15:58:09;8;8;7
44871;PMS7003;30602;51.060;17.226;2022-07-29T16:01:38;8;8;7
44871;PMS7003;30602;51.060;17.226;2022-07-29T16:05:23;7;7;6
44871;PMS7003;30602;51.060;17.226;2022-07-29T16:09:25;9;8;8
44871;PMS7003;30602;51.060;17.226;2022-07-29T16:13:22;7;6;5
44871;PMS7003;30602;51.060;17.226;2022-07-29T16:16:39;9;8;7
44871;PMS7003;30602;51.060;17.226;2022-07-29T16:19:46;8;8;6
44871;PMS7003;30602;51.060;17.226;2022-07-29T16:23:08;7;7;7
44871;PMS7003;30602;51.060;17.226;2022-07-29T16:26:18;8;7;7
44871;PMS7003;30602;51.060;17.226;2022-07-29T16:30:01;9;8;7
44871;PMS7003;30602;51.060;17.226;2022-07-29T16:33:13;12;12;11
44871;PMS7003;30602;51.060;17.226;2022-07-29T16:36:22;12;10;9
44871;PMS7003;30602;51.060;17.226;2022-07-29T16:40:14;10;9;8
44871;PMS7003;30602;51.060;17.226;2022-07-29T16:43:55;10;9;8
44871;PMS7003;30602;51.060;17.226;2022-07-29T16:47:14;11;8;7
44871;PMS7003;30602;51.060;17.226;2022-07-29T16:50:53;9;9;7
44871;PMS7003;30602;51.060;17.226;2022-07-29T16:54:06;9;9;8
44871;PMS7003;30602;51.060;17.226;2022-07-29T16:57:47;9;9;7
44871;PMS7003;30602;51.060;17.226;2022-07-29T17:01:54;13;9;9
44871;PMS7003;30602;51.060;17.226;2022-07-29T17:08:57;9;9;9
44871;PMS7003;30602;51.060;17.226;2022-07-29T17:12:05;10;10;9
44871;PMS7003;30602;51.060;17.226;2022-07-29T17:15:52;12;11;9
44871;PMS7003;30602;51.060;17.226;2022-07-29T17:19:23;11;10;9
44871;PMS7003;30602;51.060;17.226;2022-07-29T17:22:52;9;8;7
44871;PMS7003;30602;51.060;17.226;2022-07-29T17:26:22;9;8;7
44871;PMS7003;30602;51.060;17.226;2022-07-29T17:29:31;9;9;8
44871;PMS7003;30602;51.060;17.226;2022-07-29T17:33:10;9;8;7
44871;PMS7003;30602;51.060;17.226;2022-07-29T17:36:51;10;7;7
44871;PMS7003;30602;51.060;17.226;2022-07-29T17:40:48;11;11;10
44871;PMS7003;30602;51.060;17.226;2022-07-29T17:44:20;9;9;8
44871;PMS7003;30602;51.060;17.226;2022-07-29T17:48:17;9;9;8
44871;PMS7003;30602;51.060;17.226;2022-07-29T17:51:44;10;10;8
44871;PMS7003;30602;51.060;17.226;2022-07-29T17:55:00;11;9;7
44871;PMS7003;30602;51.060;17.226;2022-07-29T17:58:19;12;8;8
44871;PMS7003;30602;51.060;17.226;2022-07-29T18:02:51;10;10;9
44871;PMS7003;30602;51.060;17.226;2022-07-29T18:06:33;12;12;9
44871;PMS7003;30602;51.060;17.226;2022-07-29T18:09:55;13;10;9
44871;PMS7003;30602;51.060;17.226;2022-07-29T18:13:04;26;23;19
44871;PMS7003;30602;51.060;17.226;2022-07-29T18:16:57;19;18;14
44871;PMS7003;30602;51.060;17.226;2022-07-29T18:20:16;20;17;15
44871;PMS7003;30602;51.060;17.226;2022-07-29T18:23:35;17;15;14
44871;PMS7003;30602;51.060;17.226;2022-07-29T18:30:40;11;9;8
44871;PMS7003;30602;51.060;17.226;2022-07-29T18:34:19;9;8;7
44871;PMS7003;30602;51.060;17.226;2022-07-29T18:38:20;14;10;8
44871;PMS7003;30602;51.060;17.226;2022-07-29T18:42:01;9;9;8
44871;PMS7003;30602;51.060;17.226;2022-07-29T18:45:22;9;9;8
44871;PMS7003;30602;51.060;17.226;2022-07-29T18:52:55;11;9;8
44871;PMS7003;30602;51.060;17.226;2022-07-29T18:56:11;13;10;9
44871;PMS7003;30602;51.060;17.226;2022-07-29T18:59:32;13;11;9
44871;PMS7003;30602;51.060;17.226;2022-07-29T19:03:16;13;11;9
44871;PMS7003;30602;51.060;17.226;2022-07-29T19:06:36;11;11;9
44871;PMS7003;30602;51.060;17.226;2022-07-29T19:10:16;14;11;9
44871;PMS7003;30602;51.060;17.226;2022-07-29T19:13:48;12;11;9
44871;PMS7003;30602;51.060;17.226;2022-07-29T19:17:26;10;10;9
44871;PMS7003;30602;51.060;17.226;2022-07-29T19:20:33;11;10;9
44871;PMS7003;30602;51.060;17.226;2022-07-29T19:23:42;12;9;8
44871;PMS7003;30602;51.060;17.226;2022-07-29T19:27:03;12;11;9
44871;PMS7003;30602;51.060;17.226;2022-07-29T19:30:31;13;11;10
44871;PMS7003;30602;51.060;17.226;2022-07-29T19:34:11;9;9;8
44871;PMS7003;30602;51.060;17.226;2022-07-29T19:37:43;12;11;9
44871;PMS7003;30602;51.060;17.226;2022-07-29T19:42:00;13;11;8
44871;PMS7003;30602;51.060;17.226;2022-07-29T19:45:31;15;12;10
44871;PMS7003;30602;51.060;17.226;2022-07-29T19:48:42;16;13;9
44871;PMS7003;30602;51.060;17.226;2022-07-29T19:51:52;15;13;12
44871;PMS7003;30602;51.060;17.226;2022-07-29T19:55:31;16;15;12
44871;PMS7003;30602;51.060;17.226;2022-07-29T20:02:52;15;13;12
44871;PMS7003;30602;51.060;17.226;2022-07-29T20:06:27;14;12;10
44871;PMS7003;30602;51.060;17.226;2022-07-29T20:09:34;17;14;12
44871;PMS7003;30602;51.060;17.226;2022-07-29T20:12:47;17;16;12
44871;PMS7003;30602;51.060;17.226;2022-07-29T20:16:14;17;16;12
44871;PMS7003;30602;51.060;17.226;2022-07-29T20:20:08;19;17;12
44871;PMS7003;30602;51.060;17.226;2022-07-29T20:23:28;17;16;12
44871;PMS7003;30602;51.060;17.226;2022-07-29T20:26:50;23;15;12
44871;PMS7003;30602;51.060;17.226;2022-07-29T20:30:27;20;19;14
44871;PMS7003;30602;51.060;17.226;2022-07-29T20:38:35;15;14;11
44871;PMS7003;30602;51.060;17.226;2022-07-29T20:41:42;17;15;12
44871;PMS7003;30602;51.060;17.226;2022-07-29T20:45:12;18;17;13
44871;PMS7003;30602;51.060;17.226;2022-07-29T20:49:03;18;17;14
44871;PMS7003;30602;51.060;17.226;2022-07-29T20:52:53;17;16;14
44871;PMS7003;30602;51.060;17.226;2022-07-29T20:56:00;21;16;13
44871;PMS7003;30602;51.060;17.226;2022-07-29T20:59:30;19;16;14
44871;PMS7003;30602;51.060;17.226;2022-07-29T21:03:13;18;16;12
44871;PMS7003;30602;51.060;17.226;2022-07-29T21:06:58;17;16;12
44871;PMS7003;30602;51.060;17.226;2022-07-29T21:11:00;20;17;13
44871;PMS7003;30602;51.060;17.226;2022-07-29T21:14:29;17;17;13
44871;PMS7003;30602;51.060;17.226;2022-07-29T21:17:46;21;19;15
44871;PMS7003;30602;51.060;17.226;2022-07-29T21:21:40;24;22;17
44871;PMS7003;30602;51.060;17.226;2022-07-29T21:25:19;26;23;19
44871;PMS7003;30602;51.060;17.226;2022-07-29T21:28:32;20;19;14
44871;PMS7003;30602;51.060;17.226;2022-07-29T21:32:06;20;18;13
44871;PMS7003;30602;51.060;17.226;2022-07-29T21:35:33;18;18;14
44871;PMS7003;30602;51.060;17.226;2022-07-29T21:39:00;23;20;16
44871;PMS7003;30602;51.060;17.226;2022-07-29T21:42:48;20;20;16
44871;PMS7003;30602;51.060;17.226;2022-07-29T21:46:17;21;19;15
44871;PMS7003;30602;51.060;17.226;2022-07-29T21:49:40;25;19;17
44871;PMS7003;30602;51.060;17.226;2022-07-29T21:53:39;25;20;16
44871;PMS7003;30602;51.060;17.226;2022-07-29T21:57:11;21;19;15
44871;PMS7003;30602;51.060;17.226;2022-07-29T22:00:43;24;18;15
44871;PMS7003;30602;51.060;17.226;2022-07-29T22:04:19;25;19;16
44871;PMS7003;30602;51.060;17.226;2022-07-29T22:07:30;20;17;12
44871;PMS7003;30602;51.060;17.226;2022-07-29T22:11:42;19;18;14
44871;PMS7003;30602;51.060;17.226;2022-07-29T22:15:10;24;19;15
44871;PMS7003;30602;51.060;17.226;2022-07-29T22:19:19;22;19;16
44871;PMS7003;30602;51.060;17.226;2022-07-29T22:22:28;20;17;14
44871;PMS7003;30602;51.060;17.226;2022-07-29T22:26:40;20;17;15
44871;PMS7003;30602;51.060;17.226;2022-07-29T22:30:08;17;17;14
44871;PMS7003;30602;51.060;17.226;2022-07-29T22:33:50;17;16;12
44871;PMS7003;30602;51.060;17.226;2022-07-29T22:37:00;20;17;15
44871;PMS7003;30602;51.060;17.226;2022-07-29T22:44:27;17;16;13
44871;PMS7003;30602;51.060;17.226;2022-07-29T22:47:53;20;17;14
44871;PMS7003;30602;51.060;17.226;2022-07-29T22:51:01;16;16;14
44871;PMS7003;30602;51.060;17.226;2022-07-29T22:54:10;22;19;15
44871;PMS7003;30602;51.060;17.226;2022-07-29T22:58:25;22;19;14
44871;PMS7003;30602;51.060;17.226;2022-07-29T23:01:35;19;17;13
44871;PMS7003;30602;51.060;17.226;2022-07-29T23:04:48;19;17;13
44871;PMS7003;30602;51.060;17.226;2022-07-29T23:08:47;19;18;14
44871;PMS7003;30602;51.060;17.226;2022-07-29T23:12:28;19;18;14
44871;PMS7003;30602;51.060;17.226;2022-07-29T23:16:19;21;16;13
44871;PMS7003;30602;51.060;17.226;2022-07-29T23:19:41;19;15;13
44871;PMS7003;30602;51.060;17.226;2022-07-29T23:23:09;17;15;12
44871;PMS7003;30602;51.060;17.226;2022-07-29T23:26:36;16;16;13
44871;PMS7003;30602;51.060;17.226;2022-07-29T23:29:45;18;16;14
44871;PMS7003;30602;51.060;17.226;2022-07-29T23:33:12;17;15;13
44871;PMS7003;30602;51.060;17.226;2022-07-29T23:36:53;14;14;11
44871;PMS7003;30602;51.060;17.226;2022-07-29T23:40:04;19;16;12
44871;PMS7003;30602;51.060;17.226;2022-07-29T23:43:49;16;13;13
44871;PMS7003;30602;51.060;17.226;2022-07-29T23:47:33;18;16;14
44871;PMS7003;30602;51.060;17.226;2022-07-29T23:51:03;22;19;15
44871;PMS7003;30602;51.060;17.226;2022-07-29T23:54:32;17;16;13
44871;PMS7003;30602;51.060;17.226;2022-07-29T23:58:00;14;13;11
